sensor_id;sensor_type;location;lat;lon;timestamp;P1;durP1;ratioP1;P2;durP2;ratioP2
27895;SDS011;15241;48.374;10.876;2023-02-28T00:01:28;3.75;;;2.80;;
27895;SDS011;15241;48.374;10.876;2023-02-28T00:06:27;3.40;;;2.45;;
27895;SDS011;15241;48.374;10.876;2023-02-28T00:11:26;3.92;;;2.62;;
27895;SDS011;15241;48.374;10.876;2023-02-28T00:16:25;4.22;;;2.77;;
27895;SDS011;15241;48.374;10.876;2023-02-28T00:21:24;3.72;;;2.40;;
27895;SDS011;15241;48.374;10.876;2023-02-28T00:26:23;5.95;;;2.65;;
27895;SDS011;15241;48.374;10.876;2023-02-28T00:31:22;4.53;;;2.55;;
27895;SDS011;15241;48.374;10.876;2023-02-28T00:36:21;5.15;;;2.90;;
27895;SDS011;15241;48.374;10.876;2023-02-28T00:41:20;3.77;;;2.80;;
27895;SDS011;15241;48.374;10.876;2023-02-28T00:46:18;3.83;;;2.22;;
27895;SDS011;15241;48.374;10.876;2023-02-28T00:51:17;2.77;;;2.25;;
27895;SDS011;15241;48.374;10.876;2023-02-28T00:56:16;5.72;;;2.70;;
27895;SDS011;15241;48.374;10.876;2023-02-28T01:01:15;3.95;;;2.77;;
27895;SDS011;15241;48.374;10.876;2023-02-28T01:06:14;3.50;;;2.15;;
27895;SDS011;15241;48.374;10.876;2023-02-28T01:11:14;5.58;;;3.10;;
27895;SDS011;15241;48.374;10.876;2023-02-28T01:16:14;3.52;;;2.40;;
27895;SDS011;15241;48.374;10.876;2023-02-28T01:21:14;3.90;;;2.85;;
27895;SDS011;15241;48.374;10.876;2023-02-28T01:26:16;5.40;;;2.70;;
27895;SDS011;15241;48.374;10.876;2023-02-28T01:31:16;3.42;;;2.70;;
27895;SDS011;15241;48.374;10.876;2023-02-28T01:36:17;6.35;;;3.25;;
27895;SDS011;15241;48.374;10.876;2023-02-28T01:41:19;5.20;;;2.70;;
27895;SDS011;15241;48.374;10.876;2023-02-28T01:46:19;6.08;;;3.22;;
27895;SDS011;15241;48.374;10.876;2023-02-28T01:51:20;6.20;;;3.25;;
27895;SDS011;15241;48.374;10.876;2023-02-28T01:56:22;4.47;;;2.50;;
27895;SDS011;15241;48.374;10.876;2023-02-28T02:01:23;5.05;;;2.83;;
27895;SDS011;15241;48.374;10.876;2023-02-28T02:06:23;5.47;;;3.20;;
27895;SDS011;15241;48.374;10.876;2023-02-28T02:11:24;6.50;;;3.02;;
27895;SDS011;15241;48.374;10.876;2023-02-28T02:16:28;7.83;;;2.85;;
27895;SDS011;15241;48.374;10.876;2023-02-28T02:21:54;7.80;;;2.83;;
27895;SDS011;15241;48.374;10.876;2023-02-28T02:27:09;5.78;;;3.35;;
27895;SDS011;15241;48.374;10.876;2023-02-28T02:32:22;4.55;;;3.22;;
27895;SDS011;15241;48.374;10.876;2023-02-28T02:37:36;5.85;;;3.05;;
27895;SDS011;15241;48.374;10.876;2023-02-28T02:42:38;5.37;;;3.77;;
27895;SDS011;15241;48.374;10.876;2023-02-28T02:47:39;3.00;;;2.27;;
27895;SDS011;15241;48.374;10.876;2023-02-28T02:52:40;6.70;;;3.35;;
27895;SDS011;15241;48.374;10.876;2023-02-28T02:57:44;6.58;;;3.72;;
27895;SDS011;15241;48.374;10.876;2023-02-28T03:02:45;4.85;;;3.70;;
27895;SDS011;15241;48.374;10.876;2023-02-28T03:07:46;6.33;;;4.22;;
27895;SDS011;15241;48.374;10.876;2023-02-28T03:12:46;5.85;;;4.08;;
27895;SDS011;15241;48.374;10.876;2023-02-28T03:18:00;5.83;;;4.12;;
27895;SDS011;15241;48.374;10.876;2023-02-28T03:23:03;6.67;;;4.15;;
27895;SDS011;15241;48.374;10.876;2023-02-28T03:28:09;5.60;;;4.00;;
27895;SDS011;15241;48.374;10.876;2023-02-28T03:33:11;8.23;;;4.58;;
27895;SDS011;15241;48.374;10.876;2023-02-28T03:38:13;7.20;;;4.28;;
27895;SDS011;15241;48.374;10.876;2023-02-28T03:43:16;6.22;;;4.30;;
27895;SDS011;15241;48.374;10.876;2023-02-28T03:53:37;7.62;;;3.92;;
27895;SDS011;15241;48.374;10.876;2023-02-28T03:58:39;7.55;;;5.50;;
27895;SDS011;15241;48.374;10.876;2023-02-28T04:03:41;7.35;;;4.50;;
27895;SDS011;15241;48.374;10.876;2023-02-28T04:08:40;6.78;;;4.97;;
27895;SDS011;15241;48.374;10.876;2023-02-28T04:13:39;6.70;;;4.42;;
27895;SDS011;15241;48.374;10.876;2023-02-28T04:18:38;7.72;;;5.00;;
27895;SDS011;15241;48.374;10.876;2023-02-28T04:23:36;6.80;;;4.25;;
27895;SDS011;15241;48.374;10.876;2023-02-28T04:28:36;5.67;;;4.12;;
27895;SDS011;15241;48.374;10.876;2023-02-28T04:33:35;8.45;;;4.42;;
27895;SDS011;15241;48.374;10.876;2023-02-28T04:38:35;8.93;;;5.12;;
27895;SDS011;15241;48.374;10.876;2023-02-28T04:43:35;8.53;;;5.12;;
27895;SDS011;15241;48.374;10.876;2023-02-28T04:48:37;8.93;;;5.28;;
27895;SDS011;15241;48.374;10.876;2023-02-28T04:53:38;8.53;;;4.33;;
27895;SDS011;15241;48.374;10.876;2023-02-28T04:58:38;5.95;;;4.20;;
27895;SDS011;15241;48.374;10.876;2023-02-28T05:03:38;6.95;;;4.90;;
27895;SDS011;15241;48.374;10.876;2023-02-28T05:08:37;8.10;;;4.83;;
27895;SDS011;15241;48.374;10.876;2023-02-28T05:13:37;10.85;;;4.78;;
27895;SDS011;15241;48.374;10.876;2023-02-28T05:18:36;7.37;;;5.03;;
27895;SDS011;15241;48.374;10.876;2023-02-28T05:23:35;7.58;;;4.37;;
27895;SDS011;15241;48.374;10.876;2023-02-28T05:28:34;7.08;;;4.60;;
27895;SDS011;15241;48.374;10.876;2023-02-28T05:33:33;7.90;;;5.35;;
27895;SDS011;15241;48.374;10.876;2023-02-28T05:38:32;6.50;;;4.58;;
27895;SDS011;15241;48.374;10.876;2023-02-28T05:43:31;9.75;;;4.50;;
27895;SDS011;15241;48.374;10.876;2023-02-28T05:48:31;9.88;;;5.10;;
27895;SDS011;15241;48.374;10.876;2023-02-28T05:53:30;8.30;;;5.30;;
27895;SDS011;15241;48.374;10.876;2023-02-28T05:58:29;6.85;;;4.70;;
27895;SDS011;15241;48.374;10.876;2023-02-28T06:03:29;9.13;;;5.37;;
27895;SDS011;15241;48.374;10.876;2023-02-28T06:08:27;9.10;;;5.65;;
27895;SDS011;15241;48.374;10.876;2023-02-28T06:13:26;9.93;;;6.03;;
27895;SDS011;15241;48.374;10.876;2023-02-28T06:18:25;10.35;;;6.10;;
27895;SDS011;15241;48.374;10.876;2023-02-28T06:23:24;13.60;;;6.15;;
27895;SDS011;15241;48.374;10.876;2023-02-28T06:28:23;8.40;;;5.53;;
27895;SDS011;15241;48.374;10.876;2023-02-28T06:33:22;9.98;;;6.60;;
27895;SDS011;15241;48.374;10.876;2023-02-28T06:38:22;11.63;;;7.33;;
27895;SDS011;15241;48.374;10.876;2023-02-28T06:43:22;8.58;;;6.00;;
27895;SDS011;15241;48.374;10.876;2023-02-28T06:48:22;10.28;;;5.87;;
27895;SDS011;15241;48.374;10.876;2023-02-28T06:53:21;8.88;;;5.97;;
27895;SDS011;15241;48.374;10.876;2023-02-28T06:58:20;7.53;;;5.37;;
27895;SDS011;15241;48.374;10.876;2023-02-28T07:03:19;12.47;;;6.37;;
27895;SDS011;15241;48.374;10.876;2023-02-28T07:08:18;9.65;;;6.50;;
27895;SDS011;15241;48.374;10.876;2023-02-28T07:13:17;9.18;;;6.08;;
27895;SDS011;15241;48.374;10.876;2023-02-28T07:18:16;9.68;;;6.37;;
27895;SDS011;15241;48.374;10.876;2023-02-28T07:23:15;9.73;;;6.08;;
27895;SDS011;15241;48.374;10.876;2023-02-28T07:28:14;10.08;;;6.28;;
27895;SDS011;15241;48.374;10.876;2023-02-28T07:33:13;10.82;;;6.53;;
27895;SDS011;15241;48.374;10.876;2023-02-28T07:38:12;8.53;;;5.87;;
27895;SDS011;15241;48.374;10.876;2023-02-28T07:43:11;9.23;;;6.45;;
27895;SDS011;15241;48.374;10.876;2023-02-28T07:48:10;10.40;;;7.03;;
27895;SDS011;15241;48.374;10.876;2023-02-28T07:53:09;10.82;;;7.25;;
27895;SDS011;15241;48.374;10.876;2023-02-28T07:58:07;10.00;;;7.03;;
27895;SDS011;15241;48.374;10.876;2023-02-28T08:03:07;10.95;;;6.90;;
27895;SDS011;15241;48.374;10.876;2023-02-28T08:08:08;11.57;;;6.45;;
27895;SDS011;15241;48.374;10.876;2023-02-28T08:13:07;10.93;;;7.25;;
27895;SDS011;15241;48.374;10.876;2023-02-28T08:18:06;10.75;;;7.47;;
27895;SDS011;15241;48.374;10.876;2023-02-28T08:23:05;9.85;;;7.47;;
27895;SDS011;15241;48.374;10.876;2023-02-28T08:28:04;10.20;;;7.22;;
27895;SDS011;15241;48.374;10.876;2023-02-28T08:33:03;11.60;;;7.35;;
27895;SDS011;15241;48.374;10.876;2023-02-28T08:38:02;12.33;;;8.20;;
27895;SDS011;15241;48.374;10.876;2023-02-28T08:43:01;12.60;;;7.70;;
27895;SDS011;15241;48.374;10.876;2023-02-28T08:47:59;9.60;;;7.25;;
27895;SDS011;15241;48.374;10.876;2023-02-28T08:52:58;10.65;;;7.30;;
27895;SDS011;15241;48.374;10.876;2023-02-28T08:57:57;10.80;;;7.30;;
27895;SDS011;15241;48.374;10.876;2023-02-28T09:02:56;11.00;;;7.95;;
27895;SDS011;15241;48.374;10.876;2023-02-28T09:07:55;11.12;;;7.92;;
27895;SDS011;15241;48.374;10.876;2023-02-28T09:12:54;13.22;;;8.73;;
27895;SDS011;15241;48.374;10.876;2023-02-28T09:17:53;15.05;;;7.85;;
27895;SDS011;15241;48.374;10.876;2023-02-28T09:22:52;9.78;;;7.55;;
27895;SDS011;15241;48.374;10.876;2023-02-28T09:27:51;12.47;;;8.25;;
27895;SDS011;15241;48.374;10.876;2023-02-28T09:32:50;10.35;;;7.65;;
27895;SDS011;15241;48.374;10.876;2023-02-28T09:37:49;12.90;;;8.45;;
27895;SDS011;15241;48.374;10.876;2023-02-28T09:42:50;10.93;;;8.10;;
27895;SDS011;15241;48.374;10.876;2023-02-28T09:47:50;9.78;;;7.95;;
27895;SDS011;15241;48.374;10.876;2023-02-28T09:52:52;10.65;;;8.28;;
27895;SDS011;15241;48.374;10.876;2023-02-28T09:57:52;11.45;;;8.25;;
27895;SDS011;15241;48.374;10.876;2023-02-28T10:03:02;14.13;;;9.00;;
27895;SDS011;15241;48.374;10.876;2023-02-28T10:08:25;13.10;;;8.88;;
27895;SDS011;15241;48.374;10.876;2023-02-28T10:13:26;11.73;;;9.00;;
27895;SDS011;15241;48.374;10.876;2023-02-28T10:18:40;12.30;;;8.28;;
27895;SDS011;15241;48.374;10.876;2023-02-28T10:23:40;11.40;;;8.55;;
27895;SDS011;15241;48.374;10.876;2023-02-28T10:28:39;15.83;;;9.50;;
27895;SDS011;15241;48.374;10.876;2023-02-28T10:33:39;9.58;;;8.45;;
27895;SDS011;15241;48.374;10.876;2023-02-28T10:38:39;10.82;;;8.18;;
27895;SDS011;15241;48.374;10.876;2023-02-28T10:43:39;9.33;;;8.05;;
27895;SDS011;15241;48.374;10.876;2023-02-28T10:48:39;8.53;;;7.60;;
27895;SDS011;15241;48.374;10.876;2023-02-28T10:53:45;9.58;;;8.38;;
27895;SDS011;15241;48.374;10.876;2023-02-28T10:58:51;10.78;;;7.67;;
27895;SDS011;15241;48.374;10.876;2023-02-28T11:03:52;9.23;;;7.95;;
27895;SDS011;15241;48.374;10.876;2023-02-28T11:08:54;8.95;;;8.05;;
27895;SDS011;15241;48.374;10.876;2023-02-28T11:13:53;10.13;;;8.33;;
27895;SDS011;15241;48.374;10.876;2023-02-28T11:24:02;9.55;;;8.43;;
27895;SDS011;15241;48.374;10.876;2023-02-28T11:29:03;9.37;;;7.73;;
27895;SDS011;15241;48.374;10.876;2023-02-28T11:34:26;10.60;;;8.25;;
27895;SDS011;15241;48.374;10.876;2023-02-28T11:39:25;8.83;;;7.83;;
27895;SDS011;15241;48.374;10.876;2023-02-28T11:44:29;8.38;;;7.58;;
27895;SDS011;15241;48.374;10.876;2023-02-28T11:49:35;10.18;;;7.55;;
27895;SDS011;15241;48.374;10.876;2023-02-28T11:54:39;9.20;;;8.30;;
27895;SDS011;15241;48.374;10.876;2023-02-28T11:59:48;8.38;;;7.55;;
27895;SDS011;15241;48.374;10.876;2023-02-28T12:04:53;7.80;;;7.20;;
27895;SDS011;15241;48.374;10.876;2023-02-28T12:10:00;8.33;;;7.42;;
27895;SDS011;15241;48.374;10.876;2023-02-28T12:15:12;7.62;;;6.92;;
27895;SDS011;15241;48.374;10.876;2023-02-28T12:20:25;8.38;;;7.58;;
27895;SDS011;15241;48.374;10.876;2023-02-28T12:25:41;8.10;;;7.35;;
27895;SDS011;15241;48.374;10.876;2023-02-28T12:30:52;7.75;;;7.15;;
27895;SDS011;15241;48.374;10.876;2023-02-28T12:35:52;7.78;;;7.10;;
27895;SDS011;15241;48.374;10.876;2023-02-28T12:40:53;8.40;;;7.72;;
27895;SDS011;15241;48.374;10.876;2023-02-28T12:45:55;7.83;;;7.22;;
27895;SDS011;15241;48.374;10.876;2023-02-28T12:50:57;7.50;;;6.87;;
27895;SDS011;15241;48.374;10.876;2023-02-28T12:55:58;7.53;;;6.93;;
27895;SDS011;15241;48.374;10.876;2023-02-28T13:01:10;7.97;;;7.28;;
27895;SDS011;15241;48.374;10.876;2023-02-28T13:06:30;7.65;;;7.15;;
27895;SDS011;15241;48.374;10.876;2023-02-28T13:11:42;7.80;;;7.20;;
27895;SDS011;15241;48.374;10.876;2023-02-28T13:16:49;7.67;;;6.97;;
27895;SDS011;15241;48.374;10.876;2023-02-28T13:21:57;7.72;;;7.12;;
27895;SDS011;15241;48.374;10.876;2023-02-28T13:27:19;7.40;;;6.90;;
27895;SDS011;15241;48.374;10.876;2023-02-28T13:32:33;7.53;;;6.95;;
27895;SDS011;15241;48.374;10.876;2023-02-28T13:37:36;7.28;;;6.78;;
27895;SDS011;15241;48.374;10.876;2023-02-28T13:42:41;7.47;;;6.92;;
27895;SDS011;15241;48.374;10.876;2023-02-28T13:47:48;8.25;;;7.40;;
27895;SDS011;15241;48.374;10.876;2023-02-28T13:52:52;7.72;;;7.12;;
27895;SDS011;15241;48.374;10.876;2023-02-28T13:58:10;7.90;;;7.22;;
27895;SDS011;15241;48.374;10.876;2023-02-28T14:03:23;8.10;;;7.30;;
27895;SDS011;15241;48.374;10.876;2023-02-28T14:08:31;8.45;;;7.65;;
27895;SDS011;15241;48.374;10.876;2023-02-28T14:13:40;7.95;;;7.15;;
27895;SDS011;15241;48.374;10.876;2023-02-28T14:18:41;8.38;;;7.45;;
27895;SDS011;15241;48.374;10.876;2023-02-28T14:29:19;8.18;;;7.47;;
27895;SDS011;15241;48.374;10.876;2023-02-28T14:34:34;7.80;;;7.10;;
27895;SDS011;15241;48.374;10.876;2023-02-28T14:39:40;7.50;;;6.90;;
27895;SDS011;15241;48.374;10.876;2023-02-28T14:44:39;7.40;;;6.80;;
27895;SDS011;15241;48.374;10.876;2023-02-28T14:49:42;7.10;;;6.45;;
27895;SDS011;15241;48.374;10.876;2023-02-28T14:54:42;6.15;;;5.65;;
27895;SDS011;15241;48.374;10.876;2023-02-28T15:04:40;7.15;;;6.65;;
27895;SDS011;15241;48.374;10.876;2023-02-28T15:09:39;7.42;;;6.83;;
27895;SDS011;15241;48.374;10.876;2023-02-28T15:14:38;7.30;;;6.80;;
27895;SDS011;15241;48.374;10.876;2023-02-28T15:19:41;8.75;;;7.42;;
27895;SDS011;15241;48.374;10.876;2023-02-28T15:24:42;7.78;;;7.10;;
27895;SDS011;15241;48.374;10.876;2023-02-28T15:29:45;8.38;;;7.78;;
27895;SDS011;15241;48.374;10.876;2023-02-28T15:34:45;8.00;;;7.40;;
27895;SDS011;15241;48.374;10.876;2023-02-28T15:39:44;9.60;;;8.65;;
27895;SDS011;15241;48.374;10.876;2023-02-28T15:44:45;8.80;;;7.92;;
27895;SDS011;15241;48.374;10.876;2023-02-28T15:49:46;8.85;;;8.15;;
27895;SDS011;15241;48.374;10.876;2023-02-28T15:54:47;8.25;;;7.45;;
27895;SDS011;15241;48.374;10.876;2023-02-28T15:59:55;8.50;;;7.67;;
27895;SDS011;15241;48.374;10.876;2023-02-28T16:04:57;8.70;;;7.90;;
27895;SDS011;15241;48.374;10.876;2023-02-28T16:09:59;9.55;;;7.97;;
27895;SDS011;15241;48.374;10.876;2023-02-28T16:15:00;9.13;;;8.10;;
27895;SDS011;15241;48.374;10.876;2023-02-28T16:20:06;10.32;;;8.90;;
27895;SDS011;15241;48.374;10.876;2023-02-28T16:25:12;10.38;;;9.30;;
27895;SDS011;15241;48.374;10.876;2023-02-28T16:30:16;12.20;;;9.33;;
27895;SDS011;15241;48.374;10.876;2023-02-28T16:35:18;12.13;;;9.15;;
27895;SDS011;15241;48.374;10.876;2023-02-28T16:40:19;11.57;;;9.45;;
27895;SDS011;15241;48.374;10.876;2023-02-28T16:45:20;12.47;;;9.00;;
27895;SDS011;15241;48.374;10.876;2023-02-28T16:50:22;12.35;;;9.78;;
27895;SDS011;15241;48.374;10.876;2023-02-28T16:55:23;11.93;;;8.98;;
27895;SDS011;15241;48.374;10.876;2023-02-28T17:00:24;16.77;;;9.08;;
27895;SDS011;15241;48.374;10.876;2023-02-28T17:05:23;15.78;;;9.23;;
27895;SDS011;15241;48.374;10.876;2023-02-28T17:10:23;12.53;;;9.23;;
27895;SDS011;15241;48.374;10.876;2023-02-28T17:15:23;15.63;;;10.20;;
27895;SDS011;15241;48.374;10.876;2023-02-28T17:20:22;13.13;;;8.65;;
27895;SDS011;15241;48.374;10.876;2023-02-28T17:25:21;14.58;;;10.03;;
27895;SDS011;15241;48.374;10.876;2023-02-28T17:30:21;14.90;;;8.95;;
27895;SDS011;15241;48.374;10.876;2023-02-28T17:35:21;15.38;;;10.15;;
27895;SDS011;15241;48.374;10.876;2023-02-28T17:40:21;15.40;;;10.05;;
27895;SDS011;15241;48.374;10.876;2023-02-28T17:45:21;14.65;;;10.23;;
27895;SDS011;15241;48.374;10.876;2023-02-28T17:50:21;13.95;;;10.53;;
27895;SDS011;15241;48.374;10.876;2023-02-28T17:55:20;14.25;;;9.93;;
27895;SDS011;15241;48.374;10.876;2023-02-28T18:00:19;14.98;;;10.15;;
27895;SDS011;15241;48.374;10.876;2023-02-28T18:05:19;13.98;;;10.40;;
27895;SDS011;15241;48.374;10.876;2023-02-28T18:10:18;14.87;;;9.23;;
27895;SDS011;15241;48.374;10.876;2023-02-28T18:15:18;16.65;;;11.00;;
27895;SDS011;15241;48.374;10.876;2023-02-28T18:20:19;19.17;;;11.55;;
27895;SDS011;15241;48.374;10.876;2023-02-28T18:25:18;17.48;;;11.73;;
27895;SDS011;15241;48.374;10.876;2023-02-28T18:30:17;23.98;;;11.40;;
27895;SDS011;15241;48.374;10.876;2023-02-28T18:35:17;18.05;;;10.40;;
27895;SDS011;15241;48.374;10.876;2023-02-28T18:40:16;24.10;;;10.98;;
27895;SDS011;15241;48.374;10.876;2023-02-28T18:45:16;15.08;;;9.70;;
27895;SDS011;15241;48.374;10.876;2023-02-28T18:50:15;15.03;;;10.03;;
27895;SDS011;15241;48.374;10.876;2023-02-28T18:55:15;16.17;;;9.85;;
27895;SDS011;15241;48.374;10.876;2023-02-28T19:00:14;19.10;;;10.30;;
27895;SDS011;15241;48.374;10.876;2023-02-28T19:05:14;19.17;;;10.63;;
27895;SDS011;15241;48.374;10.876;2023-02-28T19:10:14;15.75;;;9.68;;
27895;SDS011;15241;48.374;10.876;2023-02-28T19:15:13;15.70;;;9.53;;
27895;SDS011;15241;48.374;10.876;2023-02-28T19:20:12;16.55;;;9.65;;
27895;SDS011;15241;48.374;10.876;2023-02-28T19:25:11;16.07;;;10.23;;
27895;SDS011;15241;48.374;10.876;2023-02-28T19:30:11;16.57;;;10.00;;
27895;SDS011;15241;48.374;10.876;2023-02-28T19:35:10;14.65;;;9.45;;
27895;SDS011;15241;48.374;10.876;2023-02-28T19:40:10;17.20;;;10.13;;
27895;SDS011;15241;48.374;10.876;2023-02-28T19:45:10;17.45;;;9.53;;
27895;SDS011;15241;48.374;10.876;2023-02-28T19:50:11;14.75;;;9.93;;
27895;SDS011;15241;48.374;10.876;2023-02-28T19:55:10;16.60;;;9.80;;
27895;SDS011;15241;48.374;10.876;2023-02-28T20:00:10;15.45;;;9.70;;
27895;SDS011;15241;48.374;10.876;2023-02-28T20:05:10;18.05;;;10.43;;
27895;SDS011;15241;48.374;10.876;2023-02-28T20:10:11;16.55;;;9.65;;
27895;SDS011;15241;48.374;10.876;2023-02-28T20:15:10;18.80;;;9.78;;
27895;SDS011;15241;48.374;10.876;2023-02-28T20:20:10;15.28;;;10.25;;
27895;SDS011;15241;48.374;10.876;2023-02-28T20:25:09;15.08;;;10.15;;
27895;SDS011;15241;48.374;10.876;2023-02-28T20:30:09;15.03;;;9.63;;
27895;SDS011;15241;48.374;10.876;2023-02-28T20:35:09;16.05;;;10.53;;
27895;SDS011;15241;48.374;10.876;2023-02-28T20:40:11;14.30;;;10.15;;
27895;SDS011;15241;48.374;10.876;2023-02-28T20:45:11;20.15;;;11.55;;
27895;SDS011;15241;48.374;10.876;2023-02-28T20:50:10;19.57;;;12.75;;
27895;SDS011;15241;48.374;10.876;2023-02-28T20:55:10;20.35;;;10.43;;
27895;SDS011;15241;48.374;10.876;2023-02-28T21:00:11;15.60;;;10.23;;
27895;SDS011;15241;48.374;10.876;2023-02-28T21:05:11;15.58;;;10.00;;
27895;SDS011;15241;48.374;10.876;2023-02-28T21:10:11;17.75;;;10.93;;
27895;SDS011;15241;48.374;10.876;2023-02-28T21:15:10;17.15;;;10.72;;
27895;SDS011;15241;48.374;10.876;2023-02-28T21:20:11;18.57;;;11.15;;
27895;SDS011;15241;48.374;10.876;2023-02-28T21:25:10;17.67;;;10.55;;
27895;SDS011;15241;48.374;10.876;2023-02-28T21:30:10;17.65;;;10.43;;
27895;SDS011;15241;48.374;10.876;2023-02-28T21:35:09;17.20;;;10.93;;
27895;SDS011;15241;48.374;10.876;2023-02-28T21:40:10;18.30;;;10.72;;
27895;SDS011;15241;48.374;10.876;2023-02-28T21:45:11;16.93;;;10.90;;
27895;SDS011;15241;48.374;10.876;2023-02-28T21:50:11;17.55;;;11.35;;
27895;SDS011;15241;48.374;10.876;2023-02-28T21:55:10;20.70;;;11.03;;
27895;SDS011;15241;48.374;10.876;2023-02-28T22:00:10;19.07;;;12.03;;
27895;SDS011;15241;48.374;10.876;2023-02-28T22:05:10;18.50;;;11.55;;
27895;SDS011;15241;48.374;10.876;2023-02-28T22:10:10;19.87;;;11.45;;
27895;SDS011;15241;48.374;10.876;2023-02-28T22:15:12;19.70;;;12.73;;
27895;SDS011;15241;48.374;10.876;2023-02-28T22:20:19;17.62;;;11.43;;
27895;SDS011;15241;48.374;10.876;2023-02-28T22:25:18;21.33;;;12.15;;
27895;SDS011;15241;48.374;10.876;2023-02-28T22:30:17;19.23;;;11.63;;
27895;SDS011;15241;48.374;10.876;2023-02-28T22:35:16;20.32;;;11.73;;
27895;SDS011;15241;48.374;10.876;2023-02-28T22:40:15;19.48;;;11.80;;
27895;SDS011;15241;48.374;10.876;2023-02-28T22:45:15;18.70;;;12.10;;
27895;SDS011;15241;48.374;10.876;2023-02-28T22:50:14;20.20;;;13.32;;
27895;SDS011;15241;48.374;10.876;2023-02-28T22:55:13;18.40;;;10.55;;
27895;SDS011;15241;48.374;10.876;2023-02-28T23:00:13;21.05;;;12.25;;
27895;SDS011;15241;48.374;10.876;2023-02-28T23:05:12;21.05;;;12.05;;
27895;SDS011;15241;48.374;10.876;2023-02-28T23:10:13;18.20;;;12.35;;
27895;SDS011;15241;48.374;10.876;2023-02-28T23:15:14;18.55;;;12.13;;
27895;SDS011;15241;48.374;10.876;2023-02-28T23:20:14;21.40;;;12.65;;
27895;SDS011;15241;48.374;10.876;2023-02-28T23:25:15;20.65;;;12.30;;
27895;SDS011;15241;48.374;10.876;2023-02-28T23:30:16;18.32;;;12.68;;
27895;SDS011;15241;48.374;10.876;2023-02-28T23:35:15;20.10;;;13.05;;
27895;SDS011;15241;48.374;10.876;2023-02-28T23:45:14;19.65;;;12.65;;
27895;SDS011;15241;48.374;10.876;2023-02-28T23:50:13;18.87;;;12.23;;
27895;SDS011;15241;48.374;10.876;2023-02-28T23:55:12;19.10;;;12.10;;
